Time;durP1;ratioP1;P1;durP2;ratioP2;P2;SDS_P1;SDS_P2;PMS_P1;PMS_P2;Temp;Humidity;BMP_temperature;BMP_pressure;BME280_temperature;BME280_humidity;BME280_pressure;Samples;Min_cycle;Max_cycle;Signal;HPM_P1;HPM_P2
2022/06/18 05:00:40;;;;;;;4.80;3.80;;;21.80;97.20;;;;;;1721718;28;20178;-74
2022/06/18 05:01:31;;;;;;;3.30;3.10;;;21.80;97.20;;;;;;1721597;28;20205;-74
2022/06/18 05:02:25;;;;;;;5.03;3.05;;;21.80;97.20;;;;;;1721555;28;20205;-74
2022/06/18 05:03:18;;;;;;;3.88;3.58;;;21.80;97.20;;;;;;1721453;28;20229;-74
2022/06/18 05:04:10;;;;;;;3.38;3.13;;;21.80;97.20;;;;;;1721529;28;20284;-74
2022/06/18 05:05:01;;;;;;;3.40;3.10;;;21.80;97.20;;;;;;1721526;28;20209;-74
2022/06/18 05:05:53;;;;;;;3.50;3.20;;;21.90;97.20;;;;;;1716402;28;20285;-74
2022/06/18 05:06:44;;;;;;;3.33;3.05;;;21.90;97.20;;;;;;1714647;28;20244;-74
2022/06/18 05:07:36;;;;;;;3.50;3.20;;;21.90;97.20;;;;;;1714789;28;20212;-74
2022/06/18 05:08:26;;;;;;;3.53;3.25;;;21.90;97.20;;;;;;1714761;28;20213;-74
2022/06/18 05:09:19;;;;;;;4.03;3.73;;;21.90;97.20;;;;;;1714855;28;20194;-74
2022/06/18 05:10:10;;;;;;;3.95;3.05;;;22.00;97.20;;;;;;1714664;28;20226;-74
2022/06/18 05:11:02;;;;;;;3.45;3.25;;;22.00;97.20;;;;;;1715028;28;20304;-74
2022/06/18 05:11:53;;;;;;;3.53;3.22;;;22.00;97.20;;;;;;1714861;28;20753;-74
2022/06/18 05:12:45;;;;;;;3.50;3.30;;;22.00;97.20;;;;;;1714626;28;20732;-74
2022/06/18 05:13:36;;;;;;;3.28;3.08;;;22.00;97.20;;;;;;1714799;28;20619;-74
2022/06/18 05:14:27;;;;;;;4.07;3.37;;;22.00;97.20;;;;;;1714821;28;20630;-74
2022/06/18 05:15:19;;;;;;;4.40;4.00;;;22.10;97.20;;;;;;1714825;28;20457;-74
2022/06/18 05:16:12;;;;;;;4.38;3.80;;;22.10;97.20;;;;;;1714819;28;20208;-74
2022/06/18 05:17:04;;;;;;;4.22;3.90;;;22.10;97.20;;;;;;1714487;28;20240;-74
2022/06/18 05:17:56;;;;;;;4.10;3.70;;;22.10;97.20;;;;;;1714536;28;20225;-74
2022/06/18 05:18:47;;;;;;;3.90;3.60;;;22.10;97.20;;;;;;1714847;28;20217;-74
2022/06/18 05:19:39;;;;;;;5.32;4.35;;;22.10;97.20;;;;;;1714678;28;20437;-74
2022/06/18 05:20:30;;;;;;;5.75;3.60;;;22.10;97.20;;;;;;1714752;28;20202;-73
2022/06/18 05:21:21;;;;;;;3.50;3.27;;;22.20;97.20;;;;;;1720596;28;20229;-74
2022/06/18 05:22:13;;;;;;;4.25;3.80;;;22.20;97.20;;;;;;1721446;28;20448;-74
2022/06/18 05:23:04;;;;;;;5.22;3.40;;;22.20;97.20;;;;;;1721312;28;20293;-74
2022/06/18 05:23:55;;;;;;;4.18;3.78;;;22.20;97.20;;;;;;1721427;28;20201;-74
2022/06/18 05:24:47;;;;;;;3.93;3.63;;;22.20;97.20;;;;;;1721434;28;20201;-74
2022/06/18 05:25:38;;;;;;;3.70;3.15;;;22.20;97.20;;;;;;1721386;28;20213;-74
2022/06/18 05:26:29;;;;;;;3.80;3.50;;;22.20;97.20;;;;;;1721028;28;20296;-74
2022/06/18 05:27:24;;;;;;;3.63;3.33;;;22.30;97.20;;;;;;1714434;28;20210;-74
2022/06/18 05:28:16;;;;;;;3.88;3.20;;;22.30;97.20;;;;;;1714531;28;20289;-74
2022/06/18 05:29:08;;;;;;;5.10;3.50;;;22.30;97.20;;;;;;1714853;28;20202;-74
2022/06/18 05:30:00;;;;;;;3.30;3.10;;;22.30;97.20;;;;;;1714732;28;20194;-74
2022/06/18 05:30:52;;;;;;;6.07;3.80;;;22.30;97.20;;;;;;1717343;28;20212;-74
2022/06/18 05:31:45;;;;;;;3.80;3.50;;;22.40;97.20;;;;;;1721426;28;20674;-74
2022/06/18 05:32:36;;;;;;;3.90;3.58;;;22.40;97.20;;;;;;1721506;28;20205;-74
2022/06/18 05:33:28;;;;;;;3.88;3.60;;;22.40;97.20;;;;;;1721371;28;20221;-74
2022/06/18 05:34:19;;;;;;;3.50;3.20;;;22.40;97.20;;;;;;1721340;28;20216;-74
2022/06/18 05:35:12;;;;;;;3.50;3.30;;;22.40;97.20;;;;;;1721380;28;20292;-74
2022/06/18 05:36:03;;;;;;;3.75;3.45;;;22.40;97.20;;;;;;1721378;28;20452;-74
2022/06/18 05:36:55;;;;;;;5.22;3.55;;;22.40;97.20;;;;;;1718341;28;20225;-74
2022/06/18 05:37:46;;;;;;;3.63;3.35;;;22.40;97.20;;;;;;1714567;28;20201;-74
2022/06/18 05:38:38;;;;;;;3.60;3.30;;;22.50;97.20;;;;;;1714662;28;20284;-74
2022/06/18 05:39:29;;;;;;;4.43;3.25;;;22.50;97.20;;;;;;1714609;28;20213;-74
2022/06/18 05:40:21;;;;;;;3.60;3.30;;;22.50;97.20;;;;;;1714707;28;20198;-74
2022/06/18 05:41:11;;;;;;;4.57;3.45;;;22.50;97.20;;;;;;1714647;28;20688;-74
2022/06/18 05:42:03;;;;;;;3.73;3.50;;;22.60;97.20;;;;;;1714705;28;20617;-74
2022/06/18 05:42:55;;;;;;;4.65;3.53;;;22.60;97.20;;;;;;1714573;28;20209;-74
2022/06/18 05:43:45;;;;;;;4.13;3.80;;;22.60;97.20;;;;;;1714609;28;20198;-74
2022/06/18 05:44:38;;;;;;;3.67;3.47;;;22.60;97.20;;;;;;1714603;28;20293;-74
2022/06/18 05:45:29;;;;;;;4.30;3.88;;;22.60;97.20;;;;;;1714704;28;20213;-74
2022/06/18 05:46:21;;;;;;;8.27;4.60;;;22.60;97.20;;;;;;1714515;28;20208;-74
2022/06/18 05:47:18;;;;;;;3.90;3.60;;;22.70;97.20;;;;;;1718471;28;20202;-74
2022/06/18 05:48:11;;;;;;;3.60;3.30;;;22.70;97.20;;;;;;1721267;28;20201;-74
2022/06/18 05:49:02;;;;;;;3.80;3.60;;;22.70;97.20;;;;;;1721268;28;20205;-74
2022/06/18 05:49:56;;;;;;;5.03;4.00;;;22.70;97.20;;;;;;1721336;28;20224;-74
2022/06/18 05:50:46;;;;;;;3.67;3.38;;;22.70;97.20;;;;;;1721411;28;20209;-74
2022/06/18 05:51:38;;;;;;;4.90;3.40;;;22.80;97.20;;;;;;1721266;28;20236;-74
2022/06/18 05:52:30;;;;;;;3.70;3.40;;;22.80;97.20;;;;;;1721272;28;20213;-74
2022/06/18 05:53:21;;;;;;;3.50;3.20;;;22.80;97.20;;;;;;1721302;28;20602;-74
2022/06/18 05:54:12;;;;;;;4.07;3.75;;;22.80;97.20;;;;;;1721389;28;20680;-74
2022/06/18 05:55:05;;;;;;;3.43;3.13;;;22.80;97.20;;;;;;1721296;28;20582;-74
2022/06/18 05:55:55;;;;;;;4.07;3.70;;;22.90;97.20;;;;;;1721307;28;20263;-74
2022/06/18 05:56:47;;;;;;;5.53;3.57;;;22.90;97.20;;;;;;1719922;28;20201;-74
2022/06/18 05:57:45;;;;;;;4.32;4.03;;;22.90;97.20;;;;;;1714480;28;20205;-76
2022/06/18 05:58:37;;;;;;;6.53;3.83;;;22.90;97.20;;;;;;1714501;28;20687;-76
2022/06/18 05:59:27;;;;;;;3.60;3.30;;;22.90;97.20;;;;;;1714686;28;20649;-76
2022/06/18 06:00:21;;;;;;;4.10;3.80;;;22.90;97.20;;;;;;1714629;28;20608;-76
2022/06/18 06:01:12;;;;;;;4.03;3.70;;;22.90;97.20;;;;;;1714516;28;20590;-76
2022/06/18 06:02:04;;;;;;;4.23;3.80;;;23.00;97.20;;;;;;1714616;28;20285;-73
2022/06/18 06:02:56;;;;;;;3.95;3.65;;;23.00;97.20;;;;;;1714404;28;20452;-73
2022/06/18 06:03:48;;;;;;;4.20;3.80;;;23.00;97.20;;;;;;1714563;28;20221;-74
2022/06/18 06:04:40;;;;;;;3.47;3.17;;;23.00;97.20;;;;;;1714611;28;20210;-73
2022/06/18 06:05:32;;;;;;;3.90;3.63;;;23.00;97.20;;;;;;1714528;28;20545;-74
2022/06/18 06:06:23;;;;;;;4.57;4.15;;;23.00;97.20;;;;;;1714471;28;20217;-74
2022/06/18 06:07:16;;;;;;;3.70;3.40;;;23.00;97.20;;;;;;1718467;28;20204;-74
2022/06/18 06:08:08;;;;;;;3.63;3.33;;;23.10;97.20;;;;;;1721121;28;20279;-74
2022/06/18 06:09:00;;;;;;;3.97;3.65;;;23.10;97.20;;;;;;1721331;28;20205;-74
2022/06/18 06:12:12;;;;;;;3.80;3.60;;;23.10;97.20;;;;;;1721309;28;20281;-74
2022/06/18 06:13:04;;;;;;;7.38;4.13;;;23.10;97.20;;;;;;1720991;28;20712;-74
2022/06/18 06:13:56;;;;;;;3.60;3.40;;;23.20;97.20;;;;;;1721194;28;20577;-73
2022/06/18 06:14:46;;;;;;;4.65;3.40;;;23.20;97.20;;;;;;1721307;28;20683;-74
2022/06/18 06:15:40;;;;;;;6.23;4.30;;;23.20;97.20;;;;;;1721130;28;20628;-74
2022/06/18 06:16:31;;;;;;;3.87;3.57;;;23.20;97.20;;;;;;1721052;28;20208;-74
2022/06/18 06:17:26;;;;;;;3.90;3.60;;;23.20;97.20;;;;;;1715347;28;20483;-74
2022/06/18 06:18:19;;;;;;;3.27;3.03;;;23.20;97.20;;;;;;1713765;28;20697;-73
2022/06/18 06:19:11;;;;;;;4.15;3.85;;;23.20;97.20;;;;;;1714332;28;20932;-74
2022/06/18 06:20:05;;;;;;;3.72;3.42;;;23.20;97.20;;;;;;1714398;28;20198;-74
2022/06/18 06:20:59;;;;;;;3.50;3.30;;;23.20;97.20;;;;;;1714413;28;20264;-74
2022/06/18 06:21:50;;;;;;;4.18;3.78;;;23.20;97.20;;;;;;1714470;28;20573;-73
2022/06/18 06:22:42;;;;;;;3.80;3.53;;;23.30;97.20;;;;;;1714234;28;20206;-73
2022/06/18 06:23:33;;;;;;;3.85;3.55;;;23.30;97.20;;;;;;1714355;28;20449;-74
2022/06/18 06:24:24;;;;;;;4.07;3.70;;;23.30;97.20;;;;;;1714403;28;20716;-74
2022/06/18 06:25:15;;;;;;;3.60;3.30;;;23.30;97.20;;;;;;1714487;28;20317;-74
2022/06/18 06:26:15;;;;;;;4.00;3.70;;;23.30;97.20;;;;;;1714399;28;20249;-74
2022/06/18 06:27:06;;;;;;;4.60;3.63;;;23.30;97.20;;;;;;1716759;28;20445;-76
2022/06/18 06:27:58;;;;;;;3.57;3.37;;;23.40;97.20;;;;;;1720912;28;20293;-76
2022/06/18 06:28:48;;;;;;;3.95;3.63;;;23.40;97.20;;;;;;1721020;28;20213;-76
2022/06/18 06:29:40;;;;;;;3.67;3.30;;;23.40;97.20;;;;;;1721141;28;20228;-76
2022/06/18 06:30:31;;;;;;;3.42;3.20;;;23.40;97.20;;;;;;1721040;28;20205;-75
2022/06/18 06:31:23;;;;;;;3.63;3.33;;;23.50;97.20;;;;;;1720972;28;20292;-76
2022/06/18 06:32:13;;;;;;;3.88;3.58;;;23.50;97.20;;;;;;1721037;28;20201;-76
2022/06/18 06:33:05;;;;;;;3.90;3.60;;;23.50;97.20;;;;;;1721021;28;20217;-76
2022/06/18 06:33:57;;;;;;;3.92;3.63;;;23.50;97.20;;;;;;1720991;28;20703;-76
2022/06/18 06:34:49;;;;;;;3.90;3.60;;;23.50;97.20;;;;;;1721073;28;20252;-76
2022/06/18 06:35:40;;;;;;;3.58;3.25;;;23.50;97.20;;;;;;1720957;28;20448;-76
2022/06/18 06:36:32;;;;;;;4.03;3.67;;;23.50;97.20;;;;;;1720930;28;20236;-76
2022/06/18 06:37:23;;;;;;;3.88;3.20;;;23.50;97.20;;;;;;1716006;28;20205;-76
2022/06/18 06:38:15;;;;;;;4.40;3.60;;;23.50;97.20;;;;;;1714116;28;20229;-76
2022/06/18 06:39:06;;;;;;;3.33;3.10;;;23.60;97.20;;;;;;1714319;28;20206;-76
2022/06/18 06:39:58;;;;;;;4.07;3.77;;;23.60;97.20;;;;;;1714279;28;20699;-76
2022/06/18 06:40:50;;;;;;;3.88;3.58;;;23.60;97.20;;;;;;1714294;28;20577;-76
2022/06/18 06:41:42;;;;;;;3.90;3.60;;;23.60;97.20;;;;;;1714224;28;20209;-76
2022/06/18 06:42:39;;;;;;;3.73;3.43;;;23.70;97.20;;;;;;1714160;28;20457;-76
2022/06/18 06:43:31;;;;;;;3.70;3.40;;;23.70;97.20;;;;;;1714318;28;20444;-76
2022/06/18 06:44:22;;;;;;;3.80;3.50;;;23.70;97.20;;;;;;1714226;28;20210;-76
2022/06/18 06:45:15;;;;;;;7.80;3.70;;;23.70;97.20;;;;;;1714261;28;20297;-76
2022/06/18 06:46:06;;;;;;;4.25;3.95;;;23.80;97.20;;;;;;1714240;28;20205;-76
2022/06/18 06:46:59;;;;;;;8.33;3.53;;;23.80;97.20;;;;;;1714683;28;20285;-76
2022/06/18 06:47:50;;;;;;;5.35;3.55;;;23.80;97.20;;;;;;1720905;28;20224;-76
2022/06/18 06:48:42;;;;;;;4.03;3.67;;;23.80;97.20;;;;;;1720987;28;20197;-76
2022/06/18 06:49:34;;;;;;;3.73;3.43;;;23.90;97.20;;;;;;1720962;28;20676;-76
2022/06/18 06:50:28;;;;;;;4.00;3.63;;;23.90;97.20;;;;;;1720907;28;20523;-76
2022/06/18 06:51:23;;;;;;;3.90;3.50;;;23.90;97.20;;;;;;1720887;28;20974;-76
2022/06/18 06:52:15;;;;;;;9.02;3.40;;;24.00;97.20;;;;;;1720919;28;20613;-76
2022/06/18 06:53:06;;;;;;;3.78;3.47;;;24.00;97.20;;;;;;1720894;28;20595;-76
2022/06/18 06:53:57;;;;;;;3.80;3.45;;;24.00;97.20;;;;;;1720926;28;20201;-76
2022/06/18 06:57:21;;;;;;;3.90;3.28;;;24.00;97.20;;;;;;1720858;28;20201;-76
2022/06/18 06:57:23;;;;;;;3.80;3.50;;;24.10;97.20;;;;;;1718192;28;20220;-77
2022/06/18 06:58:16;;;;;;;3.93;3.63;;;24.10;97.20;;;;;;1714024;28;20212;-76
2022/06/18 06:59:08;;;;;;;5.77;3.93;;;24.20;97.20;;;;;;1714247;28;20488;-76
2022/06/18 07:00:00;;;;;;;3.63;3.30;;;24.20;97.20;;;;;;1714126;28;20447;-76
2022/06/18 07:00:52;;;;;;;3.40;3.10;;;24.20;97.20;;;;;;1714309;28;20929;-76
2022/06/18 07:01:45;;;;;;;3.70;3.40;;;24.20;97.20;;;;;;1714196;28;20198;-76
2022/06/18 07:02:36;;;;;;;3.47;3.00;;;24.20;97.20;;;;;;1714121;28;20747;-76
2022/06/18 07:03:31;;;;;;;5.00;3.20;;;24.30;97.20;;;;;;1714004;28;20248;-76
2022/06/18 07:04:22;;;;;;;3.50;3.30;;;24.30;97.20;;;;;;1714104;28;20503;-76
2022/06/18 07:05:15;;;;;;;4.83;3.67;;;24.30;97.20;;;;;;1714029;28;20437;-76
2022/06/18 07:06:07;;;;;;;4.00;3.70;;;24.30;97.20;;;;;;1714064;28;20468;-76
2022/06/18 07:06:59;;;;;;;3.80;3.00;;;24.40;97.20;;;;;;1714099;28;20548;-76
2022/06/18 07:07:49;;;;;;;3.95;3.60;;;24.40;97.20;;;;;;1720845;28;20448;-76
2022/06/18 07:08:41;;;;;;;4.03;3.70;;;24.40;97.20;;;;;;1720828;28;20200;-74
2022/06/18 07:09:32;;;;;;;3.95;3.65;;;24.40;97.20;;;;;;1720797;28;20212;-74
2022/06/18 07:10:24;;;;;;;4.10;3.43;;;24.50;97.20;;;;;;1720811;28;20498;-74
2022/06/18 07:11:16;;;;;;;3.50;3.30;;;24.50;97.20;;;;;;1720824;28;20205;-74
2022/06/18 07:12:09;;;;;;;3.90;3.60;;;24.50;97.20;;;;;;1720793;28;20565;-74
2022/06/18 07:13:00;;;;;;;3.90;3.53;;;24.60;97.20;;;;;;1720561;28;20463;-73
2022/06/18 07:13:52;;;;;;;3.40;3.07;;;24.60;97.20;;;;;;1720828;28;20207;-74
2022/06/18 07:14:42;;;;;;;3.60;3.40;;;24.60;97.20;;;;;;1720777;28;20960;-73
2022/06/18 07:15:35;;;;;;;7.37;3.47;;;24.60;97.20;;;;;;1720793;28;20633;-74
2022/06/18 07:16:26;;;;;;;4.65;3.92;;;24.70;97.20;;;;;;1720799;28;20629;-74
2022/06/18 07:17:19;;;;;;;4.17;3.43;;;24.70;97.20;;;;;;1720027;28;20205;-76
2022/06/18 07:18:15;;;;;;;3.88;3.58;;;24.70;97.20;;;;;;1720732;28;20455;-76
2022/06/18 07:19:09;;;;;;;4.30;3.40;;;24.70;97.20;;;;;;1720764;28;20197;-76
2022/06/18 07:20:00;;;;;;;3.23;3.03;;;24.80;97.20;;;;;;1720713;28;20547;-76
2022/06/18 07:20:53;;;;;;;5.63;3.47;;;24.80;97.20;;;;;;1720778;28;20452;-76
2022/06/18 07:21:44;;;;;;;3.70;3.40;;;24.80;97.20;;;;;;1720792;28;20244;-76
2022/06/18 07:22:39;;;;;;;3.60;3.30;;;24.80;97.20;;;;;;1720794;28;20271;-76
2022/06/18 07:23:30;;;;;;;3.80;3.60;;;24.90;97.20;;;;;;1720699;28;20844;-76
2022/06/18 07:24:22;;;;;;;3.70;3.40;;;24.90;97.20;;;;;;1720740;28;20953;-76
2022/06/18 07:25:14;;;;;;;3.00;2.72;;;24.90;97.20;;;;;;1720707;28;20920;-76
2022/06/18 07:26:06;;;;;;;6.15;3.55;;;24.90;97.20;;;;;;1720702;28;20205;-76
2022/06/18 07:26:57;;;;;;;3.50;3.30;;;25.00;97.20;;;;;;1720262;28;20212;-76
2022/06/18 07:27:52;;;;;;;4.07;3.77;;;25.00;97.20;;;;;;1713956;28;20232;-76
2022/06/18 07:28:43;;;;;;;3.75;3.40;;;25.00;97.20;;;;;;1714064;28;20673;-76
2022/06/18 07:29:35;;;;;;;3.37;3.07;;;25.00;97.20;;;;;;1713594;28;20574;-76
2022/06/18 07:30:26;;;;;;;4.17;3.87;;;25.10;97.20;;;;;;1713706;28;20445;-76
2022/06/18 07:31:23;;;;;;;3.60;3.30;;;25.10;97.20;;;;;;1713931;28;20503;-76
2022/06/18 07:32:17;;;;;;;5.30;3.35;;;25.10;97.20;;;;;;1714091;28;20449;-76
2022/06/18 07:33:18;;;;;;;3.13;2.90;;;25.10;97.20;;;;;;1714004;28;20221;-76
2022/06/18 07:34:10;;;;;;;3.20;2.97;;;25.20;97.20;;;;;;1714075;28;20445;-76
2022/06/18 07:35:02;;;;;;;2.90;2.70;;;25.20;97.20;;;;;;1714051;28;20605;-76
2022/06/18 07:35:55;;;;;;;3.27;3.07;;;25.20;97.20;;;;;;1714015;28;20893;-76
2022/06/18 07:36:47;;;;;;;3.20;3.00;;;25.20;97.20;;;;;;1713708;28;20444;-76
2022/06/18 07:37:37;;;;;;;5.30;3.00;;;25.30;97.20;;;;;;1718891;28;20203;-76
2022/06/18 07:38:29;;;;;;;3.40;3.20;;;25.30;97.20;;;;;;1720655;28;20482;-76
2022/06/18 07:39:20;;;;;;;3.50;3.20;;;25.30;97.20;;;;;;1720608;28;20209;-76
2022/06/18 07:40:13;;;;;;;3.40;3.20;;;25.40;97.20;;;;;;1720748;28;20920;-76
2022/06/18 07:41:05;;;;;;;4.10;3.80;;;25.40;97.20;;;;;;1720629;28;20292;-76
2022/06/18 07:41:57;;;;;;;3.00;2.80;;;25.40;97.20;;;;;;1720655;28;20204;-76
2022/06/18 07:42:51;;;;;;;3.30;3.10;;;25.40;97.20;;;;;;1720625;28;20946;-76
2022/06/18 07:43:47;;;;;;;4.60;3.03;;;25.50;97.20;;;;;;1720614;28;20832;-76
2022/06/18 07:44:37;;;;;;;3.60;3.40;;;25.50;97.20;;;;;;1720558;28;20451;-76
2022/06/18 07:45:29;;;;;;;3.43;3.23;;;25.50;97.20;;;;;;1720649;28;20539;-76
2022/06/18 07:46:21;;;;;;;3.60;3.30;;;25.60;97.20;;;;;;1720580;28;20216;-76
2022/06/18 07:47:14;;;;;;;3.70;3.40;;;25.60;97.20;;;;;;1718458;28;20532;-76
2022/06/18 07:48:06;;;;;;;3.20;3.00;;;25.60;97.20;;;;;;1713936;28;20449;-76
2022/06/18 07:48:57;;;;;;;3.80;3.50;;;25.60;97.20;;;;;;1713974;28;20507;-76
2022/06/18 07:49:48;;;;;;;5.20;3.73;;;25.70;97.20;;;;;;1713877;28;20437;-76
2022/06/18 07:50:43;;;;;;;3.13;2.93;;;25.70;97.20;;;;;;1713954;28;20532;-76
2022/06/18 07:51:35;;;;;;;3.13;2.93;;;25.80;97.20;;;;;;1713936;28;20217;-76
2022/06/18 07:52:27;;;;;;;2.90;2.70;;;25.80;97.20;;;;;;1714051;28;20449;-75
2022/06/18 07:53:21;;;;;;;3.63;3.17;;;25.80;97.20;;;;;;1713801;28;20469;-76
2022/06/18 07:54:14;;;;;;;3.47;3.17;;;25.80;97.20;;;;;;1713941;28;20936;-76
2022/06/18 07:55:06;;;;;;;3.40;3.20;;;25.90;97.20;;;;;;1713868;28;20847;-76
2022/06/18 07:55:58;;;;;;;3.73;3.43;;;25.90;97.20;;;;;;1713862;28;20787;-75
2022/06/18 07:56:49;;;;;;;6.23;3.10;;;25.90;97.20;;;;;;1713702;28;20452;-76
2022/06/18 07:57:42;;;;;;;3.67;2.90;;;26.00;97.20;;;;;;1718904;28;20447;-76
2022/06/18 07:58:34;;;;;;;3.30;3.10;;;26.00;97.20;;;;;;1720411;28;20506;-76
2022/06/18 07:59:25;;;;;;;3.77;3.13;;;26.10;97.20;;;;;;1720584;28;20499;-75
2022/06/18 08:00:19;;;;;;;3.03;2.73;;;26.10;97.20;;;;;;1720559;28;20452;-76
2022/06/18 08:01:11;;;;;;;3.80;3.50;;;26.10;97.20;;;;;;1720558;28;20483;-76
2022/06/18 08:02:02;;;;;;;3.63;3.33;;;26.10;97.20;;;;;;1720522;28;20811;-76
2022/06/18 08:02:54;;;;;;;3.37;3.17;;;26.20;97.20;;;;;;1720509;28;20444;-76
2022/06/18 08:03:45;;;;;;;3.03;2.83;;;26.20;97.20;;;;;;1720665;28;20444;-76
2022/06/18 08:04:37;;;;;;;2.93;2.70;;;26.20;97.20;;;;;;1720690;28;20448;-74
2022/06/18 08:05:28;;;;;;;4.60;4.20;;;26.30;97.20;;;;;;1720627;28;20444;-76
2022/06/18 08:06:19;;;;;;;3.00;2.80;;;26.30;97.20;;;;;;1720563;28;20532;-76
2022/06/18 08:07:12;;;;;;;3.33;3.13;;;26.30;97.20;;;;;;1718983;28;20440;-76
2022/06/18 08:08:04;;;;;;;3.20;3.00;;;26.30;97.20;;;;;;1713776;28;20449;-76
2022/06/18 08:08:55;;;;;;;3.53;3.10;;;26.40;97.20;;;;;;1713936;28;20444;-76
2022/06/18 08:09:47;;;;;;;3.20;2.93;;;26.40;97.20;;;;;;1713935;28;20441;-76
2022/06/18 08:10:40;;;;;;;3.13;2.50;;;26.40;97.20;;;;;;1713827;28;20449;-76
2022/06/18 08:11:31;;;;;;;5.70;2.80;;;26.40;97.20;;;;;;1713700;28;20478;-74
2022/06/18 08:12:22;;;;;;;2.60;2.40;;;26.40;97.20;;;;;;1713969;28;20456;-73
2022/06/18 08:13:14;;;;;;;3.33;2.87;;;26.40;97.20;;;;;;1713719;28;20552;-76
2022/06/18 08:14:06;;;;;;;3.30;3.10;;;26.50;97.20;;;;;;1713822;28;20458;-76
2022/06/18 08:14:58;;;;;;;3.97;3.67;;;26.50;97.20;;;;;;1713974;28;20913;-75
2022/06/18 08:15:50;;;;;;;4.10;3.57;;;26.50;97.20;;;;;;1713836;28;20507;-76
2022/06/18 08:16:41;;;;;;;3.60;3.30;;;26.50;97.20;;;;;;1713556;28;20448;-75
2022/06/18 08:17:33;;;;;;;3.70;3.40;;;26.50;97.20;;;;;;1717328;28;20476;-76
2022/06/18 08:18:24;;;;;;;3.60;3.30;;;26.60;97.20;;;;;;1720546;28;20201;-75
2022/06/18 08:19:16;;;;;;;4.60;2.93;;;26.60;97.20;;;;;;1720483;28;20563;-75
2022/06/18 08:20:08;;;;;;;4.40;4.00;;;26.60;97.20;;;;;;1720594;28;20205;-73
2022/06/18 08:21:04;;;;;;;3.10;2.80;;;26.70;97.20;;;;;;1720602;28;20947;-76
2022/06/18 08:21:55;;;;;;;3.40;3.00;;;26.70;97.20;;;;;;1720688;28;20481;-76
2022/06/18 08:22:50;;;;;;;3.67;3.37;;;26.70;97.20;;;;;;1720460;28;20472;-76
2022/06/18 08:23:40;;;;;;;3.67;3.37;;;26.70;97.20;;;;;;1720506;28;20819;-76
2022/06/18 08:24:33;;;;;;;3.87;3.47;;;26.80;97.20;;;;;;1720577;28;20448;-75
2022/06/18 08:25:26;;;;;;;2.90;2.70;;;26.80;97.20;;;;;;1720658;28;20208;-75
2022/06/18 08:26:18;;;;;;;2.50;2.30;;;26.80;97.20;;;;;;1720487;28;20444;-76
2022/06/18 08:27:09;;;;;;;2.43;2.17;;;26.90;97.20;;;;;;1719624;28;20820;-75
2022/06/18 08:28:04;;;;;;;3.07;2.50;;;26.90;97.20;;;;;;1713742;28;20448;-75
2022/06/18 08:28:55;;;;;;;4.97;2.73;;;26.90;97.20;;;;;;1713783;28;20453;-75
2022/06/18 08:29:47;;;;;;;2.63;2.43;;;26.90;97.20;;;;;;1713839;28;20524;-75
2022/06/18 08:30:41;;;;;;;2.77;2.57;;;27.00;97.20;;;;;;1713760;28;20460;-76
2022/06/18 08:31:33;;;;;;;3.70;2.37;;;27.00;97.20;;;;;;1713796;28;20449;-75
2022/06/18 08:32:24;;;;;;;2.10;2.00;;;27.00;97.20;;;;;;1713800;28;20457;-75
2022/06/18 08:33:15;;;;;;;2.50;2.30;;;27.10;97.20;;;;;;1713693;28;20552;-75
2022/06/18 08:34:06;;;;;;;2.90;2.30;;;27.10;97.20;;;;;;1713880;28;20415;-75
2022/06/18 08:34:58;;;;;;;2.73;2.50;;;27.10;97.20;;;;;;1713767;28;20520;-76
2022/06/18 08:35:51;;;;;;;2.90;2.70;;;27.20;97.20;;;;;;1713764;28;20452;-75
2022/06/18 08:36:44;;;;;;;2.50;2.30;;;27.20;97.20;;;;;;1713530;28;20453;-75
2022/06/18 08:37:35;;;;;;;3.43;2.47;;;27.30;97.20;;;;;;1717291;28;20453;-76
2022/06/18 08:38:29;;;;;;;2.90;2.60;;;27.30;97.20;;;;;;1720542;28;20452;-75
2022/06/18 08:39:20;;;;;;;2.90;2.70;;;27.30;97.20;;;;;;1720479;28;20488;-76
2022/06/18 08:40:35;;;;;;;2.90;2.70;;;27.40;97.20;;;;;;1720459;28;20539;-75
2022/06/18 08:41:44;;;;;;;2.97;2.30;;;27.40;97.20;;;;;;1721338;28;20527;-76
2022/06/18 08:42:42;;;;;;;2.83;2.60;;;27.40;97.20;;;;;;1721650;28;20809;-76
2022/06/18 08:43:53;;;;;;;3.20;2.90;;;27.40;97.20;;;;;;1721777;28;20448;-75
2022/06/18 08:45:23;;;;;;;4.50;2.37;;;27.40;97.20;;;;;;1721757;28;20451;-75
2022/06/18 08:46:23;;;;;;;2.47;2.27;;;27.50;97.20;;;;;;1721627;28;20455;-75
2022/06/18 08:47:27;;;;;;;2.40;2.20;;;27.50;97.20;;;;;;1720543;28;20444;-75
2022/06/18 08:48:45;;;;;;;2.77;2.57;;;27.50;97.20;;;;;;1715044;28;20441;-75
2022/06/18 08:49:55;;;;;;;2.70;2.50;;;27.50;97.20;;;;;;1714957;28;20441;-75
2022/06/18 08:50:56;;;;;;;2.80;2.43;;;27.50;97.20;;;;;;1715023;28;20445;-75
2022/06/18 08:51:57;;;;;;;2.13;2.03;;;27.50;97.20;;;;;;1715034;28;20456;-75
2022/06/18 08:53:03;;;;;;;2.30;2.20;;;27.50;97.20;;;;;;1714935;28;20449;-73
2022/06/18 08:54:13;;;;;;;5.00;2.40;;;27.50;97.20;;;;;;1715000;28;20452;-76
2022/06/18 08:55:13;;;;;;;3.13;2.27;;;27.50;97.20;;;;;;1714927;28;20445;-76
2022/06/18 08:56:09;;;;;;;2.60;2.40;;;27.50;97.20;;;;;;1714918;28;20528;-77
2022/06/18 08:57:11;;;;;;;2.47;2.27;;;27.60;97.20;;;;;;1714636;28;20492;-77
2022/06/18 08:58:10;;;;;;;5.07;2.37;;;27.60;97.20;;;;;;1714932;28;20434;-77
2022/06/18 08:59:12;;;;;;;6.90;6.40;;;27.60;97.20;;;;;;1714910;28;20476;-76
2022/06/18 09:00:11;;;;;;;4.00;3.67;;;27.60;97.20;;;;;;1714943;28;20441;-77
2022/06/18 09:01:09;;;;;;;4.77;3.10;;;27.70;97.20;;;;;;1715164;28;20484;-76
2022/06/18 09:02:11;;;;;;;4.23;2.47;;;27.70;97.20;;;;;;1715025;28;20445;-75
2022/06/18 09:03:09;;;;;;;2.70;2.33;;;27.70;97.20;;;;;;1717681;28;20838;-75
2022/06/18 09:04:12;;;;;;;2.10;2.00;;;27.70;97.20;;;;;;1718630;28;20516;-76
2022/06/18 09:05:16;;;;;;;2.80;2.50;;;27.70;97.20;;;;;;1716897;28;20441;-76
2022/06/18 09:06:21;;;;;;;2.80;2.60;;;27.70;97.20;;;;;;1716965;28;20886;-76
2022/06/18 09:07:32;;;;;;;2.67;2.43;;;27.70;97.20;;;;;;1715984;28;20449;-75
2022/06/18 09:08:49;;;;;;;2.83;2.33;;;27.80;97.20;;;;;;1715584;28;20452;-75
2022/06/18 09:10:00;;;;;;;2.80;2.40;;;27.80;97.20;;;;;;1715047;28;20449;-76
2022/06/18 09:11:08;;;;;;;2.60;2.40;;;27.80;97.20;;;;;;1714969;28;20473;-75
2022/06/18 09:12:09;;;;;;;4.20;2.60;;;27.90;97.20;;;;;;1714929;28;20453;-77
2022/06/18 09:13:05;;;;;;;2.43;2.33;;;27.90;97.20;;;;;;1714784;28;20536;-76
2022/06/18 09:14:02;;;;;;;2.53;2.33;;;28.00;97.20;;;;;;1714966;28;20458;-76
2022/06/18 09:14:58;;;;;;;3.03;2.20;;;28.00;97.20;;;;;;1714888;28;20441;-74
2022/06/18 09:15:54;;;;;;;2.20;2.00;;;28.10;97.20;;;;;;1714869;28;20528;-76
2022/06/18 09:16:51;;;;;;;4.00;2.60;;;28.10;97.20;;;;;;1714498;28;20445;-76
2022/06/18 09:17:47;;;;;;;2.67;2.47;;;28.10;97.20;;;;;;1718535;28;20474;-76
2022/06/18 09:18:42;;;;;;;2.40;2.20;;;28.10;97.20;;;;;;1721492;28;20456;-77
2022/06/18 09:19:37;;;;;;;2.37;2.17;;;28.20;97.20;;;;;;1721503;28;20538;-76
2022/06/18 09:20:32;;;;;;;5.00;4.60;;;28.20;97.20;;;;;;1721365;28;20456;-77
2022/06/18 09:21:28;;;;;;;3.67;3.37;;;28.20;97.20;;;;;;1721657;28;20443;-76
2022/06/18 09:22:20;;;;;;;3.40;3.10;;;28.20;97.20;;;;;;1721477;28;20445;-76
2022/06/18 09:23:17;;;;;;;4.53;4.20;;;28.20;97.20;;;;;;1721223;28;20456;-76
2022/06/18 09:24:13;;;;;;;5.60;5.03;;;28.30;97.20;;;;;;1721386;28;20445;-76
2022/06/18 09:25:13;;;;;;;3.80;3.50;;;28.30;97.20;;;;;;1715733;28;20496;-76
2022/06/18 09:26:11;;;;;;;3.60;2.50;;;28.40;97.20;;;;;;1714707;28;20445;-76
2022/06/18 09:27:06;;;;;;;2.40;2.20;;;28.40;97.20;;;;;;1714680;28;20441;-75
2022/06/18 09:28:03;;;;;;;2.50;2.30;;;28.50;97.20;;;;;;1714752;28;20461;-75
2022/06/18 09:29:01;;;;;;;2.33;2.13;;;28.50;97.20;;;;;;1714854;28;20480;-75
2022/06/18 09:30:00;;;;;;;2.10;2.00;;;28.50;97.20;;;;;;1714653;28;21005;-75
2022/06/18 09:30:57;;;;;;;2.13;1.90;;;28.50;97.20;;;;;;1714840;28;20527;-75
2022/06/18 09:31:54;;;;;;;2.57;2.30;;;28.50;97.20;;;;;;1714890;28;20441;-75
2022/06/18 09:32:50;;;;;;;2.23;2.03;;;28.50;97.20;;;;;;1714733;28;20453;-75
2022/06/18 09:33:46;;;;;;;1.93;1.80;;;28.60;96.20;;;;;;1714795;28;20441;-75
2022/06/18 09:34:41;;;;;;;1.80;1.70;;;28.60;96.20;;;;;;1716081;28;20460;-75
2022/06/18 09:35:38;;;;;;;2.30;2.10;;;28.60;95.80;;;;;;1721500;28;20877;-75
2022/06/18 09:36:35;;;;;;;2.10;1.90;;;28.60;94.60;;;;;;1721506;28;20453;-75
2022/06/18 09:37:34;;;;;;;2.40;2.07;;;28.60;94.20;;;;;;1721603;28;20450;-74
2022/06/18 09:38:29;;;;;;;1.87;1.63;;;28.70;94.10;;;;;;1721435;28;20931;-75
2022/06/18 09:39:25;;;;;;;1.87;1.77;;;28.60;93.60;;;;;;1721322;28;20959;-74
2022/06/18 09:40:23;;;;;;;1.83;1.50;;;28.70;92.50;;;;;;1721336;28;20463;-75
2022/06/18 09:41:19;;;;;;;1.90;1.60;;;28.70;92.30;;;;;;1721485;28;20947;-75
2022/06/18 09:42:18;;;;;;;2.90;2.00;;;28.70;92.80;;;;;;1721426;28;20453;-75
2022/06/18 09:43:22;;;;;;;1.87;1.77;;;28.70;93.80;;;;;;1721365;28;20492;-74
2022/06/18 09:44:22;;;;;;;2.07;1.93;;;28.70;94.30;;;;;;1721542;28;20452;-75
2022/06/18 09:45:19;;;;;;;3.20;1.70;;;28.80;94.60;;;;;;1714997;28;20441;-75